Flight Track Log - Related Links

Times and Time Zones

All times are in EDT time to prevent confusion due to time zone crossing. See the EGF4086 flight status page for this flight to view local times or setup timezone preferences in your user account.

Time Position Orientation Groundspeed Altitude Reporting Facility
EDT Latitude Longitude Course Direction KTS MPH feet Rate Location/Type
Mon 03:11:24 PM 43.0975 -77.6972 281° West 155 178 1,300  Level Cleveland Center
Mon 03:12:18 PM 43.0714 -77.7356 227° Southwest 201 231 3,100 2,486 Climbing Cleveland Center
Mon 03:13:00 PM 43.1482 -78.0019 280° West  Level FlightAware Approximate
Mon 03:13:15 PM 43.0833 -77.8058 283° West 213 245 5,900  Level Cleveland Center
Mon 03:14:00 PM 43.1581 -78.1146 278° West  Level FlightAware Approximate
Mon 03:14:15 PM 43.0997 -77.8850 286° West 213 245 8,400  Level Cleveland Center
Mon 03:15:00 PM 43.1705 -78.2269 281° West  Level FlightAware Approximate
Mon 03:15:15 PM 43.1164 -77.9694 285° West 219 252 10,600  Level Cleveland Center
Mon 03:16:00 PM 43.1865 -78.3385 281° West  Level FlightAware Approximate
Mon 03:16:15 PM 43.1331 -78.0628 284° West 238 274 12,600  Level Cleveland Center
Mon 03:17:15 PM 43.1517 -78.1531 286° West 258 297 14,600 2,000 Climbing Cleveland Center
Mon 03:18:15 PM 43.1703 -78.2547 284° West 269 310 16,600 1,900 Climbing Cleveland Center
Mon 03:19:15 PM 43.1892 -78.3567 284° West 280 322 18,400 1,650 Climbing Cleveland Center
Mon 03:20:15 PM 43.2078 -78.4697 283° West 286 329 19,900 1,300 Climbing Cleveland Center
Mon 03:21:15 PM 43.2058 -78.5894 269° West 305 351 21,000 1,050 Climbing Cleveland Center
Mon 03:22:15 PM 43.1997 -78.7236 266° West 331 381 22,000 993 Climbing Cleveland Center
Mon 03:23:46 PM 43.1833 -78.9167 263° West 370 426 23,500 993 Climbing Toronto Center
Mon 03:24:46 PM 43.1667 -79.0667 261° West 380 437 24,500 1,300 Climbing Toronto Center
Mon 03:25:46 PM 43.1667 -79.2167 270° West 380 437 26,100 1,900 Climbing Toronto Center
Mon 03:26:46 PM 43.1500 -79.3667 261° West 360 414 28,300 1,750 Climbing Toronto Center
Mon 03:27:46 PM 43.1500 -79.4667 270° West 330 380 29,600 850 Climbing Toronto Center
Mon 03:28:46 PM 43.1333 -79.6167 261° West 340 391 30,000 200 Climbing Toronto Center
Mon 03:29:46 PM 43.1333 -79.7500 270° West 350 403 30,000  Level Toronto Center
Mon 03:30:46 PM 43.1167 -79.8667 259° West 360 414 30,000  Level Toronto Center
Mon 03:31:46 PM 43.1167 -80.0000 270° West 350 403 30,000  Level Toronto Center
Mon 03:32:46 PM 43.1000 -80.1333 260° West 350 403 30,000  Level Toronto Center
Mon 03:33:46 PM 43.1000 -80.2667 270° West 350 403 30,000  Level Toronto Center
Mon 03:34:46 PM 43.0833 -80.4167 261° West 350 403 30,000  Level Toronto Center
Mon 03:35:46 PM 43.0833 -80.5500 270° West 350 403 30,000  Level Toronto Center
Mon 03:36:46 PM 43.0667 -80.6667 259° West 340 391 30,000  Level Toronto Center
Mon 03:37:46 PM 43.0667 -80.8000 270° West 350 403 30,000  Level Toronto Center
Mon 03:38:46 PM 43.0333 -80.9333 251° West 350 403 30,000  Level Toronto Center
Mon 03:39:46 PM 43.0333 -81.0667 270° West 350 403 30,000  Level Toronto Center
Mon 03:40:46 PM 43.0167 -81.2000 260° West 350 403 30,000  Level Toronto Center
Mon 03:41:46 PM 43.0167 -81.3500 270° West 350 403 30,000  Level Toronto Center
Mon 03:42:46 PM 43.0167 -81.4833 270° West 350 403 30,000  Level Toronto Center
Mon 03:43:46 PM 43.0167 -81.6000 270° West 350 403 30,000  Level Toronto Center
Mon 03:44:46 PM 43.0167 -81.7333 270° West 350 403 30,000  Level Toronto Center
Mon 03:45:46 PM 43.0167 -81.8667 270° West 350 403 30,000  Level Toronto Center
Mon 03:46:46 PM 43.0000 -82.0000 260° West 350 403 30,000  Level Toronto Center
Mon 03:47:46 PM 43.0000 -82.1333 270° West 350 403 30,000  Level Toronto Center
Mon 03:48:46 PM 43.0000 -82.2833 270° West 350 403 30,000  Level Toronto Center
Mon 03:49:46 PM 43.0000 -82.3833 270° West 350 403 30,000  Level Toronto Center
Mon 03:50:46 PM 43.0000 -82.5333 270° West 350 403 30,000  Level Toronto Center
Mon 03:51:46 PM 42.9833 -82.6667 260° West 350 403 30,000  Level Toronto Center
Mon 03:52:46 PM 42.9833 -82.8000 270° West 350 403 30,000  Level Toronto Center
Mon 03:53:46 PM 42.9833 -82.9167 270° West 340 391 30,000  Level Toronto Center
Mon 03:54:46 PM 42.9833 -83.0333 270° West 320 368 30,000  Level Toronto Center
Mon 03:55:46 PM 42.9833 -83.1667 270° West 310 357 30,000  Level Toronto Center
Mon 03:56:46 PM 42.9667 -83.2833 259° West 320 368 30,000  Level Toronto Center
Mon 03:57:46 PM 42.9667 -83.4000 270° West 330 380 30,000  Level Toronto Center
Mon 03:58:46 PM 42.9667 -83.5333 270° West 320 368 30,000  Level Toronto Center
Mon 03:59:46 PM 42.9667 -83.6500 270° West 320 368 30,000  Level Toronto Center
Mon 04:00:46 PM 42.9500 -83.7833 260° West 320 368 30,000  Level Toronto Center
Mon 04:01:46 PM 42.9333 -83.9167 260° West 340 391 30,000  Level Toronto Center
Mon 04:02:46 PM 42.9333 -84.0500 270° West 360 414 30,000  Level Toronto Center
Mon 04:03:26 PM 42.9283 -84.1411 266° West 374 430 30,000  Level Chicago Center
Mon 04:03:51 PM 42.9228 -84.1869 261° West 375 432 30,000  Level Cleveland Center
Mon 04:04:51 PM 42.9097 -84.3339 263° West 366 421 30,000  Level Cleveland Center
Mon 04:05:30 PM 42.9019 -84.4178 263° West 367 422 30,000  Level Chicago Center
Mon 04:06:32 PM 42.8881 -84.5567 262° West 370 426 30,000  Level Chicago Center
Mon 04:07:34 PM 42.8736 -84.6947 262° West 368 423 30,000  Level Chicago Center
Mon 04:08:36 PM 42.8589 -84.8367 262° West 378 435 30,000  Level Chicago Center
Mon 04:09:38 PM 42.8439 -84.9764 262° West 375 432 30,000  Level Chicago Center
Mon 04:10:40 PM 42.8261 -85.1414 262° West 368 423 30,000  Level Chicago Center
Mon 04:11:42 PM 42.8114 -85.2797 262° West 370 426 30,000  Level Chicago Center
Mon 04:12:44 PM 42.7958 -85.4167 261° West 367 422 30,000 -290 Level Chicago Center
Mon 04:13:46 PM 42.7781 -85.5531 260° West 366 421 29,400 -1,258 Descending Chicago Center
Mon 04:14:48 PM 42.7531 -85.6883 256° West 366 421 27,400 -1,968 Descending Chicago Center
Mon 04:15:51 PM 42.7294 -85.8181 256° West 356 410 25,300 -1,920 Descending Chicago Center
Mon 04:16:53 PM 42.7039 -85.9611 256° West 326 375 23,400 -1,694 Descending Chicago Center
Mon 04:17:55 PM 42.6822 -86.0800 256° West 323 372 21,800 -1,452 Descending Chicago Center
Mon 04:18:57 PM 42.6600 -86.1981 256° West 322 371 20,400 -1,210 Descending Chicago Center
Mon 04:19:59 PM 42.6386 -86.3108 256° West 312 359 19,300 -1,258 Descending Chicago Center
Mon 04:21:01 PM 42.6181 -86.4242 256° West 309 356 17,800 -1,452 Descending Chicago Center
Mon 04:22:03 PM 42.5964 -86.5361 255° West 306 352 16,300 -1,452 Descending Chicago Center
Mon 04:23:05 PM 42.5753 -86.6469 256° West 303 349 14,800 -1,597 Descending Chicago Center
Mon 04:24:07 PM 42.5475 -86.7808 254° West 309 356 13,000 -1,548 Descending Chicago Center
Mon 04:25:09 PM 42.5178 -86.8844 249° West 298 343 11,600 -1,113 Descending Chicago Center
Mon 04:26:11 PM 42.4897 -86.9906 250° West 298 343 10,700 -774 Descending Chicago Center
Mon 04:27:13 PM 42.4594 -87.0944 248° West 298 343 10,000 -435 Descending Chicago Center
Mon 04:28:15 PM 42.4314 -87.1958 249° West 292 336 9,800 -290 Descending Chicago Center
Mon 04:29:17 PM 42.3911 -87.2631 231° Southwest 269 310 9,400 -432 Descending Chicago Center
Mon 04:30:20 PM 42.3025 -87.2431 171° South 271 312 8,900 -672 Descending Chicago Center
Mon 04:31:22 PM 42.2314 -87.2253 170° South 263 303 8,000 -823 Descending Chicago Center
Mon 04:32:24 PM 42.1650 -87.2356 187° South 254 292 7,200 -484 Descending Chicago Center
Mon 04:33:26 PM 42.1031 -87.2681 201° Southwest 240 276 7,000 -97 Descending Chicago Center
Mon 04:34:28 PM 42.0550 -87.3247 221° Southwest 234 269 7,000  Level Chicago Center
Mon 04:35:12 PM 42.0167 -87.3833 229° Southwest 207 238 7,000  Level Chicago TRACON
Mon 04:36:12 PM 41.9833 -87.4500 236° Southwest 193 222 7,000 -100 Level Chicago TRACON
Mon 04:37:12 PM 41.9833 -87.5167 270° West 178 205 6,800 -650 Descending Chicago TRACON
Mon 04:38:12 PM 41.9833 -87.5667 270° West 157 181 5,700 -1,050 Descending Chicago TRACON
Mon 04:39:12 PM 41.9833 -87.6333 270° West 155 178 4,700 -947 Descending Chicago TRACON
Mon 04:40:06 PM 41.9833 -87.6833 270° West 164 189 3,900 -889 Descending Chicago TRACON

Login

Don't have an account? Register now (free) for customized features, flight alerts, and more!